sensor_id;sensor_type;location;lat;lon;timestamp;temperature;humidity
6986;DHT22;3533;51.246;6.850;2023-02-16T00:01:30;19.70;38.80
6986;DHT22;3533;51.246;6.850;2023-02-16T00:03:56;19.70;38.80
6986;DHT22;3533;51.246;6.850;2023-02-16T00:06:23;19.70;38.80
6986;DHT22;3533;51.246;6.850;2023-02-16T00:08:51;19.70;38.80
6986;DHT22;3533;51.246;6.850;2023-02-16T00:11:27;19.70;38.80
6986;DHT22;3533;51.246;6.850;2023-02-16T00:14:14;19.70;38.70
6986;DHT22;3533;51.246;6.850;2023-02-16T00:16:40;19.70;38.90
6986;DHT22;3533;51.246;6.850;2023-02-16T00:19:25;19.60;38.80
6986;DHT22;3533;51.246;6.850;2023-02-16T00:21:53;19.70;38.80
6986;DHT22;3533;51.246;6.850;2023-02-16T00:24:19;19.70;38.90
6986;DHT22;3533;51.246;6.850;2023-02-16T00:26:45;19.60;38.80
6986;DHT22;3533;51.246;6.850;2023-02-16T00:29:29;19.60;38.70
6986;DHT22;3533;51.246;6.850;2023-02-16T00:31:57;19.70;38.80
6986;DHT22;3533;51.246;6.850;2023-02-16T00:36:59;19.70;38.90
6986;DHT22;3533;51.246;6.850;2023-02-16T00:39:25;19.70;38.80
6986;DHT22;3533;51.246;6.850;2023-02-16T00:41:53;19.60;38.80
6986;DHT22;3533;51.246;6.850;2023-02-16T00:46:47;19.60;38.80
6986;DHT22;3533;51.246;6.850;2023-02-16T00:49:18;19.60;38.80
6986;DHT22;3533;51.246;6.850;2023-02-16T00:51:44;19.60;38.70
6986;DHT22;3533;51.246;6.850;2023-02-16T00:54:10;19.60;38.80
6986;DHT22;3533;51.246;6.850;2023-02-16T00:56:36;19.60;38.70
6986;DHT22;3533;51.246;6.850;2023-02-16T00:59:04;19.60;38.80
6986;DHT22;3533;51.246;6.850;2023-02-16T01:01:32;19.60;38.70
6986;DHT22;3533;51.246;6.850;2023-02-16T01:04:04;19.60;38.70
6986;DHT22;3533;51.246;6.850;2023-02-16T01:06:30;19.60;38.80
6986;DHT22;3533;51.246;6.850;2023-02-16T01:09:17;19.60;38.70
6986;DHT22;3533;51.246;6.850;2023-02-16T01:12:03;19.60;38.70
6986;DHT22;3533;51.246;6.850;2023-02-16T01:14:31;19.60;38.70
6986;DHT22;3533;51.246;6.850;2023-02-16T01:16:57;19.60;38.80
6986;DHT22;3533;51.246;6.850;2023-02-16T01:19:23;19.60;38.80
6986;DHT22;3533;51.246;6.850;2023-02-16T01:21:48;19.60;38.70
6986;DHT22;3533;51.246;6.850;2023-02-16T01:24:14;19.60;38.80
6986;DHT22;3533;51.246;6.850;2023-02-16T01:26:43;19.60;38.80
6986;DHT22;3533;51.246;6.850;2023-02-16T01:29:14;19.60;38.80
6986;DHT22;3533;51.246;6.850;2023-02-16T01:31:40;19.60;38.70
6986;DHT22;3533;51.246;6.850;2023-02-16T01:34:05;19.60;38.80
6986;DHT22;3533;51.246;6.850;2023-02-16T01:36:37;19.60;38.70
6986;DHT22;3533;51.246;6.850;2023-02-16T01:39:04;19.60;38.70
6986;DHT22;3533;51.246;6.850;2023-02-16T01:44:45;19.60;38.80
6986;DHT22;3533;51.246;6.850;2023-02-16T01:47:33;19.60;38.80
6986;DHT22;3533;51.246;6.850;2023-02-16T01:53:05;19.60;39.20
6986;DHT22;3533;51.246;6.850;2023-02-16T01:55:42;19.60;38.80
6986;DHT22;3533;51.246;6.850;2023-02-16T01:58:28;19.60;38.80
6986;DHT22;3533;51.246;6.850;2023-02-16T02:03:29;19.50;38.70
6986;DHT22;3533;51.246;6.850;2023-02-16T02:06:18;19.60;38.80
6986;DHT22;3533;51.246;6.850;2023-02-16T02:08:48;19.50;38.70
6986;DHT22;3533;51.246;6.850;2023-02-16T02:11:44;19.60;38.80
6986;DHT22;3533;51.246;6.850;2023-02-16T02:14:18;19.50;38.70
6986;DHT22;3533;51.246;6.850;2023-02-16T02:17:04;19.50;38.70
6986;DHT22;3533;51.246;6.850;2023-02-16T02:19:35;19.50;38.60
6986;DHT22;3533;51.246;6.850;2023-02-16T02:25:20;19.50;38.60
6986;DHT22;3533;51.246;6.850;2023-02-16T02:28:07;19.50;38.70
6986;DHT22;3533;51.246;6.850;2023-02-16T02:30:53;19.50;38.60
6986;DHT22;3533;51.246;6.850;2023-02-16T02:33:26;19.50;38.60
6986;DHT22;3533;51.246;6.850;2023-02-16T02:39:21;19.50;39.50
6986;DHT22;3533;51.246;6.850;2023-02-16T02:44:28;19.50;38.60
6986;DHT22;3533;51.246;6.850;2023-02-16T02:46:55;19.50;38.60
6986;DHT22;3533;51.246;6.850;2023-02-16T02:49:21;19.50;38.70
6986;DHT22;3533;51.246;6.850;2023-02-16T02:51:47;19.50;38.60
6986;DHT22;3533;51.246;6.850;2023-02-16T02:54:19;19.50;38.50
6986;DHT22;3533;51.246;6.850;2023-02-16T02:57:15;19.50;38.60
6986;DHT22;3533;51.246;6.850;2023-02-16T03:00:14;19.50;38.50
6986;DHT22;3533;51.246;6.850;2023-02-16T03:03:07;19.60;38.60
6986;DHT22;3533;51.246;6.850;2023-02-16T03:05:37;19.50;38.40
6986;DHT22;3533;51.246;6.850;2023-02-16T03:08:08;19.50;38.50
6986;DHT22;3533;51.246;6.850;2023-02-16T03:10:45;19.60;38.50
6986;DHT22;3533;51.246;6.850;2023-02-16T03:13:36;19.60;38.60
6986;DHT22;3533;51.246;6.850;2023-02-16T03:16:10;19.60;38.50
6986;DHT22;3533;51.246;6.850;2023-02-16T03:18:39;19.60;38.60
6986;DHT22;3533;51.246;6.850;2023-02-16T03:21:26;19.60;38.60
6986;DHT22;3533;51.246;6.850;2023-02-16T03:24:15;19.60;38.60
6986;DHT22;3533;51.246;6.850;2023-02-16T03:27:03;19.60;38.60
6986;DHT22;3533;51.246;6.850;2023-02-16T03:29:48;19.50;38.50
6986;DHT22;3533;51.246;6.850;2023-02-16T03:32:16;19.50;38.50
6986;DHT22;3533;51.246;6.850;2023-02-16T03:34:42;19.50;38.50
6986;DHT22;3533;51.246;6.850;2023-02-16T03:37:08;19.50;38.50
6986;DHT22;3533;51.246;6.850;2023-02-16T03:39:34;19.50;38.40
6986;DHT22;3533;51.246;6.850;2023-02-16T03:42:23;19.50;38.50
6986;DHT22;3533;51.246;6.850;2023-02-16T03:44:50;19.50;38.40
6986;DHT22;3533;51.246;6.850;2023-02-16T03:47:16;19.50;38.50
6986;DHT22;3533;51.246;6.850;2023-02-16T03:49:42;19.50;38.30
6986;DHT22;3533;51.246;6.850;2023-02-16T03:52:07;19.50;38.40
6986;DHT22;3533;51.246;6.850;2023-02-16T03:54:33;19.50;38.40
6986;DHT22;3533;51.246;6.850;2023-02-16T03:56:58;19.50;38.30
6986;DHT22;3533;51.246;6.850;2023-02-16T03:59:24;19.50;38.40
6986;DHT22;3533;51.246;6.850;2023-02-16T04:01:50;19.50;38.30
6986;DHT22;3533;51.246;6.850;2023-02-16T04:04:16;19.50;38.30
6986;DHT22;3533;51.246;6.850;2023-02-16T04:06:42;19.50;38.30
6986;DHT22;3533;51.246;6.850;2023-02-16T04:09:07;19.50;38.30
6986;DHT22;3533;51.246;6.850;2023-02-16T04:11:33;19.50;38.30
6986;DHT22;3533;51.246;6.850;2023-02-16T04:14:17;19.50;38.30
6986;DHT22;3533;51.246;6.850;2023-02-16T04:16:43;19.50;38.30
6986;DHT22;3533;51.246;6.850;2023-02-16T04:19:10;19.50;38.30
6986;DHT22;3533;51.246;6.850;2023-02-16T04:21:35;19.50;38.40
6986;DHT22;3533;51.246;6.850;2023-02-16T04:24:01;19.50;38.30
6986;DHT22;3533;51.246;6.850;2023-02-16T04:26:27;19.50;38.30
6986;DHT22;3533;51.246;6.850;2023-02-16T04:28:52;19.50;38.20
6986;DHT22;3533;51.246;6.850;2023-02-16T04:31:18;19.50;38.30
6986;DHT22;3533;51.246;6.850;2023-02-16T04:33:43;19.50;38.20
6986;DHT22;3533;51.246;6.850;2023-02-16T04:36:09;19.50;38.30
6986;DHT22;3533;51.246;6.850;2023-02-16T04:38:34;19.50;38.30
6986;DHT22;3533;51.246;6.850;2023-02-16T04:41:00;19.50;38.20
6986;DHT22;3533;51.246;6.850;2023-02-16T04:43:25;19.50;38.20
6986;DHT22;3533;51.246;6.850;2023-02-16T04:45:51;19.50;38.20
6986;DHT22;3533;51.246;6.850;2023-02-16T04:48:16;19.50;38.20
6986;DHT22;3533;51.246;6.850;2023-02-16T04:50:42;19.50;38.20
6986;DHT22;3533;51.246;6.850;2023-02-16T04:53:08;19.50;38.20
6986;DHT22;3533;51.246;6.850;2023-02-16T04:55:33;19.50;38.10
6986;DHT22;3533;51.246;6.850;2023-02-16T04:57:59;19.50;38.20
6986;DHT22;3533;51.246;6.850;2023-02-16T05:00:24;19.50;38.10
6986;DHT22;3533;51.246;6.850;2023-02-16T05:02:50;19.50;38.10
6986;DHT22;3533;51.246;6.850;2023-02-16T05:05:16;19.60;38.10
6986;DHT22;3533;51.246;6.850;2023-02-16T05:07:41;19.60;38.10
6986;DHT22;3533;51.246;6.850;2023-02-16T05:10:07;19.60;38.10
6986;DHT22;3533;51.246;6.850;2023-02-16T05:12:33;19.60;38.00
6986;DHT22;3533;51.246;6.850;2023-02-16T05:15:18;19.70;38.20
6986;DHT22;3533;51.246;6.850;2023-02-16T05:17:43;19.60;38.00
6986;DHT22;3533;51.246;6.850;2023-02-16T05:20:10;19.70;38.10
6986;DHT22;3533;51.246;6.850;2023-02-16T05:22:36;19.70;38.10
6986;DHT22;3533;51.246;6.850;2023-02-16T05:25:04;19.70;38.00
6986;DHT22;3533;51.246;6.850;2023-02-16T05:27:30;19.70;38.00
6986;DHT22;3533;51.246;6.850;2023-02-16T05:29:56;19.70;38.00
6986;DHT22;3533;51.246;6.850;2023-02-16T05:32:22;19.80;38.10
6986;DHT22;3533;51.246;6.850;2023-02-16T05:34:48;19.80;38.00
6986;DHT22;3533;51.246;6.850;2023-02-16T05:37:16;19.80;38.00
6986;DHT22;3533;51.246;6.850;2023-02-16T05:39:42;19.80;37.90
6986;DHT22;3533;51.246;6.850;2023-02-16T05:42:08;19.90;38.00
6986;DHT22;3533;51.246;6.850;2023-02-16T05:44:33;19.90;38.10
6986;DHT22;3533;51.246;6.850;2023-02-16T05:46:59;19.90;38.00
6986;DHT22;3533;51.246;6.850;2023-02-16T05:49:25;19.90;38.00
6986;DHT22;3533;51.246;6.850;2023-02-16T05:51:50;19.90;38.10
6986;DHT22;3533;51.246;6.850;2023-02-16T05:54:16;19.90;38.10
6986;DHT22;3533;51.246;6.850;2023-02-16T05:56:43;19.90;38.00
6986;DHT22;3533;51.246;6.850;2023-02-16T05:59:09;19.90;38.00
6986;DHT22;3533;51.246;6.850;2023-02-16T06:01:35;19.90;38.00
6986;DHT22;3533;51.246;6.850;2023-02-16T06:04:00;19.90;38.10
6986;DHT22;3533;51.246;6.850;2023-02-16T06:06:26;19.90;38.00
6986;DHT22;3533;51.246;6.850;2023-02-16T06:08:51;19.90;38.00
6986;DHT22;3533;51.246;6.850;2023-02-16T06:11:17;19.90;38.00
6986;DHT22;3533;51.246;6.850;2023-02-16T06:14:05;19.90;38.00
6986;DHT22;3533;51.246;6.850;2023-02-16T06:16:33;19.90;38.10
6986;DHT22;3533;51.246;6.850;2023-02-16T06:18:59;19.90;38.10
6986;DHT22;3533;51.246;6.850;2023-02-16T06:21:25;19.90;38.10
6986;DHT22;3533;51.246;6.850;2023-02-16T06:23:51;19.90;38.10
6986;DHT22;3533;51.246;6.850;2023-02-16T06:26:17;19.90;38.00
6986;DHT22;3533;51.246;6.850;2023-02-16T06:28:43;20.00;38.10
6986;DHT22;3533;51.246;6.850;2023-02-16T06:31:09;20.00;38.00
6986;DHT22;3533;51.246;6.850;2023-02-16T06:33:34;20.00;38.00
6986;DHT22;3533;51.246;6.850;2023-02-16T06:36:00;20.00;37.80
6986;DHT22;3533;51.246;6.850;2023-02-16T06:38:26;20.00;37.80
6986;DHT22;3533;51.246;6.850;2023-02-16T06:40:52;20.00;37.70
6986;DHT22;3533;51.246;6.850;2023-02-16T06:43:18;20.00;37.70
6986;DHT22;3533;51.246;6.850;2023-02-16T06:45:43;20.00;37.60
6986;DHT22;3533;51.246;6.850;2023-02-16T06:48:09;20.00;38.40
6986;DHT22;3533;51.246;6.850;2023-02-16T06:50:34;20.00;37.60
6986;DHT22;3533;51.246;6.850;2023-02-16T06:53:00;20.00;37.60
6986;DHT22;3533;51.246;6.850;2023-02-16T06:55:25;20.10;37.60
6986;DHT22;3533;51.246;6.850;2023-02-16T06:57:51;20.00;37.50
6986;DHT22;3533;51.246;6.850;2023-02-16T07:00:17;20.10;37.60
6986;DHT22;3533;51.246;6.850;2023-02-16T07:02:42;20.10;37.50
6986;DHT22;3533;51.246;6.850;2023-02-16T07:05:08;20.10;37.70
6986;DHT22;3533;51.246;6.850;2023-02-16T07:07:34;20.10;37.50
6986;DHT22;3533;51.246;6.850;2023-02-16T07:10:00;20.10;37.50
6986;DHT22;3533;51.246;6.850;2023-02-16T07:12:27;20.10;37.50
6986;DHT22;3533;51.246;6.850;2023-02-16T07:14:52;20.10;37.40
6986;DHT22;3533;51.246;6.850;2023-02-16T07:17:18;20.10;37.30
6986;DHT22;3533;51.246;6.850;2023-02-16T07:19:43;20.10;37.50
6986;DHT22;3533;51.246;6.850;2023-02-16T07:22:09;20.10;37.40
6986;DHT22;3533;51.246;6.850;2023-02-16T07:24:34;20.10;37.50
6986;DHT22;3533;51.246;6.850;2023-02-16T07:27:00;20.00;37.30
6986;DHT22;3533;51.246;6.850;2023-02-16T07:29:25;20.10;38.10
6986;DHT22;3533;51.246;6.850;2023-02-16T07:31:51;20.10;37.40
6986;DHT22;3533;51.246;6.850;2023-02-16T07:34:17;20.10;37.30
6986;DHT22;3533;51.246;6.850;2023-02-16T07:36:43;20.10;37.40
6986;DHT22;3533;51.246;6.850;2023-02-16T07:39:10;20.10;37.30
6986;DHT22;3533;51.246;6.850;2023-02-16T07:41:35;20.10;37.30
6986;DHT22;3533;51.246;6.850;2023-02-16T07:44:01;20.10;37.30
6986;DHT22;3533;51.246;6.850;2023-02-16T07:46:26;20.10;37.30
6986;DHT22;3533;51.246;6.850;2023-02-16T07:48:52;20.20;38.10
6986;DHT22;3533;51.246;6.850;2023-02-16T07:51:26;20.10;37.20
6986;DHT22;3533;51.246;6.850;2023-02-16T07:53:52;20.20;37.30
6986;DHT22;3533;51.246;6.850;2023-02-16T07:56:29;20.20;37.30
6986;DHT22;3533;51.246;6.850;2023-02-16T07:58:57;20.20;37.40
6986;DHT22;3533;51.246;6.850;2023-02-16T08:01:23;20.20;37.30
6986;DHT22;3533;51.246;6.850;2023-02-16T08:03:50;20.20;37.30
6986;DHT22;3533;51.246;6.850;2023-02-16T08:06:15;20.20;37.30
6986;DHT22;3533;51.246;6.850;2023-02-16T08:08:41;20.20;37.30
6986;DHT22;3533;51.246;6.850;2023-02-16T08:11:12;20.20;37.30
6986;DHT22;3533;51.246;6.850;2023-02-16T08:13:38;20.20;37.30
6986;DHT22;3533;51.246;6.850;2023-02-16T08:16:08;20.20;37.40
6986;DHT22;3533;51.246;6.850;2023-02-16T08:18:34;20.20;37.30
6986;DHT22;3533;51.246;6.850;2023-02-16T08:21:09;20.20;37.50
6986;DHT22;3533;51.246;6.850;2023-02-16T08:23:41;20.20;37.40
6986;DHT22;3533;51.246;6.850;2023-02-16T08:26:10;20.20;37.50
6986;DHT22;3533;51.246;6.850;2023-02-16T08:28:37;20.20;37.50
6986;DHT22;3533;51.246;6.850;2023-02-16T08:31:05;20.20;37.50
6986;DHT22;3533;51.246;6.850;2023-02-16T08:33:32;20.20;37.60
6986;DHT22;3533;51.246;6.850;2023-02-16T08:35:58;20.20;37.60
6986;DHT22;3533;51.246;6.850;2023-02-16T08:38:23;20.20;37.70
6986;DHT22;3533;51.246;6.850;2023-02-16T08:40:49;20.20;37.70
6986;DHT22;3533;51.246;6.850;2023-02-16T08:43:15;20.20;37.80
6986;DHT22;3533;51.246;6.850;2023-02-16T08:45:46;20.20;37.80
6986;DHT22;3533;51.246;6.850;2023-02-16T08:48:12;20.10;37.70
6986;DHT22;3533;51.246;6.850;2023-02-16T08:50:42;20.10;37.70
6986;DHT22;3533;51.246;6.850;2023-02-16T08:53:14;20.10;37.80
6986;DHT22;3533;51.246;6.850;2023-02-16T08:55:39;20.10;37.80
6986;DHT22;3533;51.246;6.850;2023-02-16T08:58:05;20.10;37.80
6986;DHT22;3533;51.246;6.850;2023-02-16T09:00:31;20.10;37.80
6986;DHT22;3533;51.246;6.850;2023-02-16T09:02:59;20.10;38.60
6986;DHT22;3533;51.246;6.850;2023-02-16T09:05:25;20.10;37.90
6986;DHT22;3533;51.246;6.850;2023-02-16T09:07:52;20.10;37.90
6986;DHT22;3533;51.246;6.850;2023-02-16T09:10:18;20.10;37.90
6986;DHT22;3533;51.246;6.850;2023-02-16T09:12:44;20.10;37.90
6986;DHT22;3533;51.246;6.850;2023-02-16T09:15:14;20.10;38.00
6986;DHT22;3533;51.246;6.850;2023-02-16T09:17:41;20.10;38.00
6986;DHT22;3533;51.246;6.850;2023-02-16T09:20:07;20.00;37.90
6986;DHT22;3533;51.246;6.850;2023-02-16T09:22:33;20.00;38.70
6986;DHT22;3533;51.246;6.850;2023-02-16T09:24:59;20.10;38.00
6986;DHT22;3533;51.246;6.850;2023-02-16T09:27:25;20.10;38.00
6986;DHT22;3533;51.246;6.850;2023-02-16T09:29:52;20.00;37.90
6986;DHT22;3533;51.246;6.850;2023-02-16T09:32:17;20.00;38.00
6986;DHT22;3533;51.246;6.850;2023-02-16T09:34:43;20.00;38.00
6986;DHT22;3533;51.246;6.850;2023-02-16T09:37:10;20.00;38.00
6986;DHT22;3533;51.246;6.850;2023-02-16T09:39:35;20.00;38.00
6986;DHT22;3533;51.246;6.850;2023-02-16T09:42:03;20.00;38.00
6986;DHT22;3533;51.246;6.850;2023-02-16T09:44:37;20.00;37.90
6986;DHT22;3533;51.246;6.850;2023-02-16T09:47:27;20.00;37.90
6986;DHT22;3533;51.246;6.850;2023-02-16T09:49:59;20.00;37.90
6986;DHT22;3533;51.246;6.850;2023-02-16T09:52:35;20.00;37.90
6986;DHT22;3533;51.246;6.850;2023-02-16T09:55:11;20.00;37.90
6986;DHT22;3533;51.246;6.850;2023-02-16T09:58:03;20.00;37.80
6986;DHT22;3533;51.246;6.850;2023-02-16T10:06:05;19.90;37.70
6986;DHT22;3533;51.246;6.850;2023-02-16T10:08:38;20.00;37.80
6986;DHT22;3533;51.246;6.850;2023-02-16T10:11:28;20.00;37.80
6986;DHT22;3533;51.246;6.850;2023-02-16T10:22:54;19.90;37.70
6986;DHT22;3533;51.246;6.850;2023-02-16T10:28:41;19.90;37.70
6986;DHT22;3533;51.246;6.850;2023-02-16T10:31:15;19.90;37.70
6986;DHT22;3533;51.246;6.850;2023-02-16T10:45:01;19.80;38.30
6986;DHT22;3533;51.246;6.850;2023-02-16T10:47:36;19.80;37.50
6986;DHT22;3533;51.246;6.850;2023-02-16T10:50:03;19.90;37.60
6986;DHT22;3533;51.246;6.850;2023-02-16T10:52:35;19.80;37.60
6986;DHT22;3533;51.246;6.850;2023-02-16T10:55:02;19.80;37.50
6986;DHT22;3533;51.246;6.850;2023-02-16T10:57:31;19.90;37.60
6986;DHT22;3533;51.246;6.850;2023-02-16T10:59:59;19.80;37.50
6986;DHT22;3533;51.246;6.850;2023-02-16T11:02:41;19.90;37.60
6986;DHT22;3533;51.246;6.850;2023-02-16T11:05:30;19.80;37.50
6986;DHT22;3533;51.246;6.850;2023-02-16T11:07:58;19.80;37.50
6986;DHT22;3533;51.246;6.850;2023-02-16T11:13:05;19.80;37.50
6986;DHT22;3533;51.246;6.850;2023-02-16T11:15:32;19.80;37.50
6986;DHT22;3533;51.246;6.850;2023-02-16T11:18:05;19.80;37.50
6986;DHT22;3533;51.246;6.850;2023-02-16T11:23:24;19.80;37.60
6986;DHT22;3533;51.246;6.850;2023-02-16T11:28:46;19.80;37.50
6986;DHT22;3533;51.246;6.850;2023-02-16T11:31:27;19.80;37.60
6986;DHT22;3533;51.246;6.850;2023-02-16T11:34:04;19.80;37.60
6986;DHT22;3533;51.246;6.850;2023-02-16T11:36:40;19.80;37.60
6986;DHT22;3533;51.246;6.850;2023-02-16T11:39:19;19.80;37.60
6986;DHT22;3533;51.246;6.850;2023-02-16T11:41:54;19.80;37.50
6986;DHT22;3533;51.246;6.850;2023-02-16T11:44:38;19.80;37.60
6986;DHT22;3533;51.246;6.850;2023-02-16T11:47:29;19.80;37.60
6986;DHT22;3533;51.246;6.850;2023-02-16T11:50:18;19.80;37.60
6986;DHT22;3533;51.246;6.850;2023-02-16T11:52:50;19.80;37.70
6986;DHT22;3533;51.246;6.850;2023-02-16T11:55:25;19.80;37.70
6986;DHT22;3533;51.246;6.850;2023-02-16T11:57:51;19.80;37.70
6986;DHT22;3533;51.246;6.850;2023-02-16T12:00:20;19.80;37.80
6986;DHT22;3533;51.246;6.850;2023-02-16T12:03:03;19.80;37.70
6986;DHT22;3533;51.246;6.850;2023-02-16T12:06:37;19.80;37.80
6986;DHT22;3533;51.246;6.850;2023-02-16T12:11:40;19.70;37.70
6986;DHT22;3533;51.246;6.850;2023-02-16T12:15:11;19.80;37.80
6986;DHT22;3533;51.246;6.850;2023-02-16T12:17:43;19.70;37.70
6986;DHT22;3533;51.246;6.850;2023-02-16T12:20:31;19.70;37.70
6986;DHT22;3533;51.246;6.850;2023-02-16T12:23:10;19.70;37.70
6986;DHT22;3533;51.246;6.850;2023-02-16T12:31:22;19.70;37.70
6986;DHT22;3533;51.246;6.850;2023-02-16T12:40:20;19.70;37.80
6986;DHT22;3533;51.246;6.850;2023-02-16T12:43:01;19.70;37.80
6986;DHT22;3533;51.246;6.850;2023-02-16T12:45:41;19.70;37.80
6986;DHT22;3533;51.246;6.850;2023-02-16T12:50:48;19.70;37.80
6986;DHT22;3533;51.246;6.850;2023-02-16T12:53:38;19.70;37.80
6986;DHT22;3533;51.246;6.850;2023-02-16T12:56:11;19.70;37.80
6986;DHT22;3533;51.246;6.850;2023-02-16T12:58:42;19.70;37.80
6986;DHT22;3533;51.246;6.850;2023-02-16T13:01:18;19.70;37.80
6986;DHT22;3533;51.246;6.850;2023-02-16T13:03:54;19.70;37.80
6986;DHT22;3533;51.246;6.850;2023-02-16T13:06:29;19.70;37.90
6986;DHT22;3533;51.246;6.850;2023-02-16T13:11:42;19.70;37.90
6986;DHT22;3533;51.246;6.850;2023-02-16T13:14:20;19.70;37.80
6986;DHT22;3533;51.246;6.850;2023-02-16T13:17:27;19.70;37.90
6986;DHT22;3533;51.246;6.850;2023-02-16T13:19:56;19.70;37.80
6986;DHT22;3533;51.246;6.850;2023-02-16T13:25:27;19.70;37.80
6986;DHT22;3533;51.246;6.850;2023-02-16T13:33:51;19.70;37.90
6986;DHT22;3533;51.246;6.850;2023-02-16T13:36:41;19.70;37.90
6986;DHT22;3533;51.246;6.850;2023-02-16T13:44:53;19.70;38.00
6986;DHT22;3533;51.246;6.850;2023-02-16T13:47:27;19.70;38.00
6986;DHT22;3533;51.246;6.850;2023-02-16T13:52:45;19.70;38.00
6986;DHT22;3533;51.246;6.850;2023-02-16T13:55:31;19.70;38.00
6986;DHT22;3533;51.246;6.850;2023-02-16T14:00:45;19.70;38.00
6986;DHT22;3533;51.246;6.850;2023-02-16T14:03:37;19.60;37.90
6986;DHT22;3533;51.246;6.850;2023-02-16T14:14:39;19.60;37.90
6986;DHT22;3533;51.246;6.850;2023-02-16T14:24:58;19.60;38.00
6986;DHT22;3533;51.246;6.850;2023-02-16T14:27:48;19.70;38.00
6986;DHT22;3533;51.246;6.850;2023-02-16T14:33:00;19.70;38.10
6986;DHT22;3533;51.246;6.850;2023-02-16T14:35:38;19.60;38.00
6986;DHT22;3533;51.246;6.850;2023-02-16T14:40:51;19.60;38.00
6986;DHT22;3533;51.246;6.850;2023-02-16T14:46:07;19.60;38.00
6986;DHT22;3533;51.246;6.850;2023-02-16T14:54:42;19.60;38.00
6986;DHT22;3533;51.246;6.850;2023-02-16T14:57:25;19.60;38.60
6986;DHT22;3533;51.246;6.850;2023-02-16T15:00:02;19.60;38.00
6986;DHT22;3533;51.246;6.850;2023-02-16T15:02:38;19.60;38.00
6986;DHT22;3533;51.246;6.850;2023-02-16T15:05:33;19.60;38.60
6986;DHT22;3533;51.246;6.850;2023-02-16T15:10:29;19.60;38.00
6986;DHT22;3533;51.246;6.850;2023-02-16T15:12:55;19.60;38.00
6986;DHT22;3533;51.246;6.850;2023-02-16T15:15:42;19.60;38.00
6986;DHT22;3533;51.246;6.850;2023-02-16T15:18:16;19.70;38.10
6986;DHT22;3533;51.246;6.850;2023-02-16T15:20:44;19.60;38.00
6986;DHT22;3533;51.246;6.850;2023-02-16T15:23:23;19.60;38.00
6986;DHT22;3533;51.246;6.850;2023-02-16T15:25:58;19.60;38.10
6986;DHT22;3533;51.246;6.850;2023-02-16T15:28:28;19.60;38.00
6986;DHT22;3533;51.246;6.850;2023-02-16T15:31:09;19.70;38.10
6986;DHT22;3533;51.246;6.850;2023-02-16T15:34:04;19.60;38.00
6986;DHT22;3533;51.246;6.850;2023-02-16T15:36:35;19.60;38.10
6986;DHT22;3533;51.246;6.850;2023-02-16T15:39:06;19.60;38.00
6986;DHT22;3533;51.246;6.850;2023-02-16T15:41:35;19.60;38.10
6986;DHT22;3533;51.246;6.850;2023-02-16T15:44:02;19.60;38.10
6986;DHT22;3533;51.246;6.850;2023-02-16T15:46:36;19.60;38.00
6986;DHT22;3533;51.246;6.850;2023-02-16T15:51:47;19.60;38.00
6986;DHT22;3533;51.246;6.850;2023-02-16T15:54:26;19.60;38.00
6986;DHT22;3533;51.246;6.850;2023-02-16T15:56:54;19.70;38.10
6986;DHT22;3533;51.246;6.850;2023-02-16T15:59:36;19.70;38.10
6986;DHT22;3533;51.246;6.850;2023-02-16T16:02:13;19.70;38.10
6986;DHT22;3533;51.246;6.850;2023-02-16T16:04:56;19.70;38.10
6986;DHT22;3533;51.246;6.850;2023-02-16T16:07:33;19.70;38.10
6986;DHT22;3533;51.246;6.850;2023-02-16T16:12:58;19.70;38.10
6986;DHT22;3533;51.246;6.850;2023-02-16T16:15:25;19.70;38.00
6986;DHT22;3533;51.246;6.850;2023-02-16T16:17:53;19.70;37.80
6986;DHT22;3533;51.246;6.850;2023-02-16T16:20:35;19.70;37.80
6986;DHT22;3533;51.246;6.850;2023-02-16T16:25:43;19.80;37.80
6986;DHT22;3533;51.246;6.850;2023-02-16T16:28:13;19.80;37.80
6986;DHT22;3533;51.246;6.850;2023-02-16T16:30:39;19.80;37.80
6986;DHT22;3533;51.246;6.850;2023-02-16T16:33:12;19.90;37.80
6986;DHT22;3533;51.246;6.850;2023-02-16T16:35:48;19.80;37.70
6986;DHT22;3533;51.246;6.850;2023-02-16T16:38:27;19.90;37.70
6986;DHT22;3533;51.246;6.850;2023-02-16T16:40:59;19.90;37.70
6986;DHT22;3533;51.246;6.850;2023-02-16T16:43:28;19.90;38.50
6986;DHT22;3533;51.246;6.850;2023-02-16T16:48:35;19.90;37.60
6986;DHT22;3533;51.246;6.850;2023-02-16T16:51:13;19.90;37.70
6986;DHT22;3533;51.246;6.850;2023-02-16T16:53:40;19.90;37.60
6986;DHT22;3533;51.246;6.850;2023-02-16T16:56:12;20.00;37.70
6986;DHT22;3533;51.246;6.850;2023-02-16T16:58:38;20.00;37.60
6986;DHT22;3533;51.246;6.850;2023-02-16T17:01:03;20.00;37.50
6986;DHT22;3533;51.246;6.850;2023-02-16T17:03:29;20.00;37.50
6986;DHT22;3533;51.246;6.850;2023-02-16T17:05:55;20.00;37.40
6986;DHT22;3533;51.246;6.850;2023-02-16T17:08:21;20.00;37.30
6986;DHT22;3533;51.246;6.850;2023-02-16T17:10:47;20.00;37.10
6986;DHT22;3533;51.246;6.850;2023-02-16T17:13:19;20.00;36.80
6986;DHT22;3533;51.246;6.850;2023-02-16T17:15:58;20.10;36.90
6986;DHT22;3533;51.246;6.850;2023-02-16T17:18:24;20.10;36.90
6986;DHT22;3533;51.246;6.850;2023-02-16T17:20:50;20.10;36.90
6986;DHT22;3533;51.246;6.850;2023-02-16T17:23:19;20.10;36.80
6986;DHT22;3533;51.246;6.850;2023-02-16T17:25:45;20.10;36.90
6986;DHT22;3533;51.246;6.850;2023-02-16T17:28:13;20.10;36.80
6986;DHT22;3533;51.246;6.850;2023-02-16T17:30:39;20.10;36.90
6986;DHT22;3533;51.246;6.850;2023-02-16T17:33:06;20.10;36.90
6986;DHT22;3533;51.246;6.850;2023-02-16T17:35:32;20.10;37.00
6986;DHT22;3533;51.246;6.850;2023-02-16T17:38:19;20.10;37.00
6986;DHT22;3533;51.246;6.850;2023-02-16T17:40:52;20.10;37.10
6986;DHT22;3533;51.246;6.850;2023-02-16T17:43:19;20.10;37.10
6986;DHT22;3533;51.246;6.850;2023-02-16T17:45:45;20.10;37.20
6986;DHT22;3533;51.246;6.850;2023-02-16T17:48:20;20.10;37.30
6986;DHT22;3533;51.246;6.850;2023-02-16T17:50:46;20.10;37.40
6986;DHT22;3533;51.246;6.850;2023-02-16T17:53:15;20.10;37.40
6986;DHT22;3533;51.246;6.850;2023-02-16T17:55:42;20.10;37.50
6986;DHT22;3533;51.246;6.850;2023-02-16T17:58:10;20.10;37.50
6986;DHT22;3533;51.246;6.850;2023-02-16T18:00:36;20.10;37.60
6986;DHT22;3533;51.246;6.850;2023-02-16T18:03:03;20.10;37.60
6986;DHT22;3533;51.246;6.850;2023-02-16T18:05:28;20.10;37.70
6986;DHT22;3533;51.246;6.850;2023-02-16T18:07:55;20.10;37.70
6986;DHT22;3533;51.246;6.850;2023-02-16T18:13:02;20.10;37.70
6986;DHT22;3533;51.246;6.850;2023-02-16T18:15:28;20.00;37.70
6986;DHT22;3533;51.246;6.850;2023-02-16T18:17:53;20.00;37.70
6986;DHT22;3533;51.246;6.850;2023-02-16T18:20:19;20.00;37.80
6986;DHT22;3533;51.246;6.850;2023-02-16T18:22:45;20.10;37.90
6986;DHT22;3533;51.246;6.850;2023-02-16T18:25:11;20.10;37.90
6986;DHT22;3533;51.246;6.850;2023-02-16T18:27:36;20.00;37.80
6986;DHT22;3533;51.246;6.850;2023-02-16T18:30:03;20.00;37.80
6986;DHT22;3533;51.246;6.850;2023-02-16T18:32:30;20.00;37.90
6986;DHT22;3533;51.246;6.850;2023-02-16T18:34:55;20.00;38.00
6986;DHT22;3533;51.246;6.850;2023-02-16T18:37:21;20.00;38.00
6986;DHT22;3533;51.246;6.850;2023-02-16T18:39:46;20.00;38.00
6986;DHT22;3533;51.246;6.850;2023-02-16T18:42:12;20.00;38.00
6986;DHT22;3533;51.246;6.850;2023-02-16T18:44:38;20.00;38.00
6986;DHT22;3533;51.246;6.850;2023-02-16T18:47:03;20.00;38.10
6986;DHT22;3533;51.246;6.850;2023-02-16T18:49:29;20.00;38.00
6986;DHT22;3533;51.246;6.850;2023-02-16T18:51:54;20.00;38.00
6986;DHT22;3533;51.246;6.850;2023-02-16T18:54:20;20.00;38.30